Time;durP1;ratioP1;P1;durP2;ratioP2;P2;SDS_P1;SDS_P2;PMS_P1;PMS_P2;Temp;Humidity;BMP_temperature;BMP_pressure;BME280_temperature;BME280_humidity;BME280_pressure;Samples;Min_cycle;Max_cycle;Signal;HPM_P1;HPM_P2
2021/05/15 00:02:20;;;;;;;5.90;2.47;;;;;;;15.91;60.40;99658.17;1761845;80;21139;-69
2021/05/15 00:04:47;;;;;;;6.12;3.17;;;;;;;15.98;60.23;99651.66;1768310;79;21100;-69
2021/05/15 00:07:15;;;;;;;5.47;2.52;;;;;;;16.04;60.22;99650.13;1764008;79;21645;-69
2021/05/15 00:09:41;;;;;;;5.62;2.70;;;;;;;16.07;59.92;99651.10;1738962;80;21076;-69
2021/05/15 00:12:09;;;;;;;5.00;2.85;;;;;;;16.10;59.95;99656.88;1757391;79;21085;-69
2021/05/15 00:14:36;;;;;;;5.12;2.95;;;;;;;16.12;60.20;99652.24;1737551;80;21136;-68
2021/05/15 00:17:04;;;;;;;7.22;3.05;;;;;;;16.14;60.13;99652.89;1763199;80;21093;-68
2021/05/15 00:19:31;;;;;;;4.97;2.70;;;;;;;16.14;59.96;99651.56;1763367;80;21587;-67
2021/05/15 00:21:58;;;;;;;6.08;3.25;;;;;;;16.14;60.15;99651.56;1760316;79;21102;-68
2021/05/15 00:24:24;;;;;;;5.30;2.92;;;;;;;16.16;60.15;99655.37;1729606;80;21184;-67
2021/05/15 00:26:51;;;;;;;5.08;2.55;;;;;;;16.13;60.10;99659.70;1764430;79;21084;-67
2021/05/15 00:29:17;;;;;;;5.25;2.75;;;;;;;16.06;60.23;99656.10;1739543;80;22366;-66
2021/05/15 00:31:44;;;;;;;4.53;2.37;;;;;;;16.00;60.51;99663.43;1761463;79;21107;-66
2021/05/15 00:34:11;;;;;;;6.53;2.62;;;;;;;15.94;60.53;99657.83;1764989;80;21132;-66
2021/05/15 00:36:37;;;;;;;5.92;2.58;;;;;;;15.87;60.50;99655.55;1756409;79;21583;-66
2021/05/15 00:39:07;;;;;;;5.15;2.52;;;;;;;15.78;60.60;99651.28;1767331;79;21096;-66
2021/05/15 00:41:33;;;;;;;4.97;2.45;;;;;;;15.75;60.85;99648.50;1756654;79;21502;-66
2021/05/15 00:44:15;;;;;;;5.45;2.72;;;;;;;15.77;60.99;99649.14;1762579;80;21071;-66
2021/05/15 00:46:40;;;;;;;5.65;2.67;;;;;;;15.75;61.16;99652.48;1757662;79;21681;-67
2021/05/15 00:49:07;;;;;;;5.08;2.52;;;;;;;15.71;61.44;99652.95;1733824;81;21043;-67
2021/05/15 00:51:34;;;;;;;5.35;2.65;;;;;;;15.66;61.54;99646.02;1760585;80;21427;-67
2021/05/15 00:54:01;;;;;;;5.60;3.08;;;;;;;15.64;61.66;99648.03;1737669;80;21084;-67
2021/05/15 00:56:31;;;;;;;7.10;2.70;;;;;;;15.63;61.70;99646.37;1755947;79;21049;-67
2021/05/15 00:58:58;;;;;;;6.10;2.98;;;;;;;15.64;61.76;99647.52;1761667;79;21080;-69
2021/05/15 01:01:26;;;;;;;6.50;3.47;;;;;;;15.63;61.85;99648.52;1754353;80;21160;-68
2021/05/15 01:03:53;;;;;;;6.50;3.05;;;;;;;15.63;61.89;99652.48;1753800;80;21187;-68
2021/05/15 01:06:21;;;;;;;5.00;2.55;;;;;;;15.63;61.92;99655.14;1740321;79;21591;-69
2021/05/15 01:08:50;;;;;;;5.55;2.70;;;;;;;15.62;61.95;99652.18;1741074;79;21649;-68
2021/05/15 01:11:18;;;;;;;5.40;2.45;;;;;;;15.68;61.88;99651.98;1761359;80;21102;-67
2021/05/15 01:14:00;;;;;;;5.62;2.77;;;;;;;15.79;61.73;99656.92;1759748;80;21083;-67
2021/05/15 01:16:27;;;;;;;5.53;2.40;;;;;;;15.84;61.66;99661.20;1754484;79;21127;-67
2021/05/15 01:18:54;;;;;;;5.95;2.85;;;;;;;15.84;61.73;99668.34;1754166;79;21133;-67
2021/05/15 01:21:21;;;;;;;5.33;2.75;;;;;;;15.79;61.85;99664.38;1754827;79;21018;-67
2021/05/15 01:23:48;;;;;;;5.62;2.75;;;;;;;15.75;61.94;99662.20;1755137;79;21088;-67
2021/05/15 01:26:17;;;;;;;5.17;2.65;;;;;;;15.69;61.98;99662.92;1759569;79;21048;-61
2021/05/15 01:28:48;;;;;;;5.40;2.90;;;;;;;15.64;62.11;99661.30;1728815;81;21117;-61
2021/05/15 01:31:15;;;;;;;5.70;3.02;;;;;;;15.58;62.27;99666.77;1757208;79;21087;-60
2021/05/15 01:33:41;;;;;;;6.03;2.58;;;;;;;15.53;62.45;99665.98;1760458;79;21038;-60
2021/05/15 01:36:08;;;;;;;5.28;2.95;;;;;;;15.48;62.66;99665.64;1754124;79;21088;-60
2021/05/15 01:38:35;;;;;;;5.35;2.80;;;;;;;15.49;62.80;99666.49;1756896;80;21171;-60
2021/05/15 01:41:05;;;;;;;6.80;2.95;;;;;;;15.54;62.74;99664.15;1753842;79;21103;-60
2021/05/15 01:43:33;;;;;;;5.30;3.05;;;;;;;15.55;62.80;99665.30;1754345;79;21026;-60
2021/05/15 01:46:00;;;;;;;7.20;2.80;;;;;;;15.52;62.98;99663.50;1760624;81;22523;-60
2021/05/15 01:48:26;;;;;;;6.33;3.10;;;;;;;15.48;63.05;99664.32;1753758;79;21082;-60
2021/05/15 01:51:13;;;;;;;6.15;2.80;;;;;;;15.45;63.24;99664.69;1755738;80;21065;-60
2021/05/15 01:53:43;;;;;;;5.45;2.67;;;;;;;15.45;63.33;99666.02;1730715;81;21208;-59
2021/05/15 01:56:12;;;;;;;6.03;2.85;;;;;;;15.42;63.55;99664.52;1753809;81;21583;-59
2021/05/15 01:58:39;;;;;;;5.97;3.08;;;;;;;15.40;63.54;99666.52;1754047;80;21104;-59
2021/05/15 02:01:05;;;;;;;5.00;2.77;;;;;;;15.39;63.66;99670.67;1756851;79;21089;-59
2021/05/15 02:03:33;;;;;;;5.17;2.42;;;;;;;15.42;63.67;99671.66;1730542;81;21068;-60
2021/05/15 02:05:59;;;;;;;5.55;3.33;;;;;;;15.50;63.64;99680.05;1755688;81;22495;-59
2021/05/15 02:08:27;;;;;;;7.20;3.90;;;;;;;15.52;63.62;99682.06;1753007;79;21651;-60
2021/05/15 02:10:56;;;;;;;6.25;3.02;;;;;;;15.50;63.71;99680.05;1760392;81;21037;-59
2021/05/15 02:13:25;;;;;;;7.67;3.80;;;;;;;15.46;63.79;99673.46;1728255;81;22344;-60
2021/05/15 02:15:54;;;;;;;8.25;3.65;;;;;;;15.41;63.81;99678.77;1747673;80;21645;-60
2021/05/15 02:18:21;;;;;;;5.45;3.47;;;;;;;15.34;63.95;99677.80;1726393;81;21108;-60
2021/05/15 02:20:49;;;;;;;5.92;3.42;;;;;;;15.28;64.07;99682.48;1751769;81;21131;-59
2021/05/15 02:23:16;;;;;;;7.20;3.60;;;;;;;15.23;64.24;99682.98;1754941;79;21035;-60
2021/05/15 02:25:42;;;;;;;5.47;3.08;;;;;;;15.21;64.25;99689.44;1731216;80;21618;-60
2021/05/15 02:28:09;;;;;;;5.22;2.83;;;;;;;15.26;64.21;99691.08;1757643;79;21058;-60
2021/05/15 02:30:35;;;;;;;5.33;2.83;;;;;;;15.33;64.02;99690.74;1730511;81;21704;-59
2021/05/15 02:33:02;;;;;;;6.83;3.05;;;;;;;15.39;63.97;99690.55;1754390;79;21079;-60
2021/05/15 02:35:29;;;;;;;5.33;3.08;;;;;;;15.44;63.89;99697.48;1729126;79;21603;-60
2021/05/15 02:37:55;;;;;;;8.88;4.10;;;;;;;15.47;63.77;99698.98;1733942;80;21129;-60
2021/05/15 02:40:22;;;;;;;5.15;2.98;;;;;;;15.46;63.82;99692.84;1758755;79;21668;-60
2021/05/15 02:42:50;;;;;;;7.12;3.55;;;;;;;15.45;63.82;99695.17;1759149;80;21080;-60
2021/05/15 02:45:18;;;;;;;8.20;3.60;;;;;;;15.45;63.78;99703.61;1756040;79;21603;-59
2021/05/15 02:47:45;;;;;;;9.75;3.60;;;;;;;15.41;63.92;99707.92;1752855;79;21128;-60
2021/05/15 02:50:13;;;;;;;6.60;3.70;;;;;;;15.41;64.06;99715.88;1755604;79;21197;-60
2021/05/15 02:52:41;;;;;;;5.60;3.10;;;;;;;15.39;64.14;99713.08;1755833;79;21638;-60
2021/05/15 02:55:11;;;;;;;7.15;3.22;;;;;;;15.37;64.29;99718.55;1760066;79;21566;-60
2021/05/15 02:57:39;;;;;;;5.55;2.92;;;;;;;15.38;64.27;99721.55;1755470;79;21494;-61
2021/05/15 03:00:08;;;;;;;6.80;3.58;;;;;;;15.44;64.04;99718.70;1764601;79;21084;-60
2021/05/15 03:02:35;;;;;;;6.90;4.00;;;;;;;15.44;64.04;99720.53;1755666;79;21098;-59
2021/05/15 03:05:05;;;;;;;7.45;3.70;;;;;;;15.37;64.16;99720.38;1742009;80;21547;-60
2021/05/15 03:07:31;;;;;;;7.03;3.65;;;;;;;15.30;64.38;99728.19;1770968;79;21112;-60
2021/05/15 03:09:58;;;;;;;8.33;3.77;;;;;;;15.25;64.54;99730.52;1772357;79;21695;-60
2021/05/15 03:12:24;;;;;;;7.03;3.72;;;;;;;15.19;64.66;99743.11;1759625;80;21020;-68
2021/05/15 03:14:52;;;;;;;5.47;3.15;;;;;;;15.11;64.83;99740.47;1753382;79;21594;-61
2021/05/15 03:17:19;;;;;;;6.22;3.10;;;;;;;15.04;65.05;99739.80;1760067;79;21120;-57
2021/05/15 03:19:45;;;;;;;5.90;2.92;;;;;;;15.05;65.13;99736.69;1772105;79;21613;-56
2021/05/15 03:22:12;;;;;;;5.72;3.02;;;;;;;15.08;65.07;99746.10;1752162;79;21026;-60
2021/05/15 03:24:38;;;;;;;5.83;3.10;;;;;;;15.08;65.12;99742.13;1742593;79;21575;-64
2021/05/15 03:27:05;;;;;;;8.40;3.77;;;;;;;15.04;65.25;99747.75;1751450;79;21100;-57
2021/05/15 03:29:32;;;;;;;7.78;3.65;;;;;;;15.00;65.30;99746.45;1765679;79;21017;-59
2021/05/15 03:31:59;;;;;;;6.17;3.10;;;;;;;14.98;65.40;99746.30;1742635;79;21103;-60
2021/05/15 03:34:25;;;;;;;6.22;2.83;;;;;;;14.95;65.46;99742.15;1769921;79;21559;-61
2021/05/15 03:36:52;;;;;;;6.60;3.52;;;;;;;14.97;65.52;99748.61;1766079;79;21072;-60
2021/05/15 03:39:19;;;;;;;6.97;3.30;;;;;;;15.01;65.42;99749.44;1753049;80;21564;-60
2021/05/15 03:41:46;;;;;;;6.90;3.00;;;;;;;15.12;65.21;99754.06;1765761;79;21115;-59
2021/05/15 03:44:14;;;;;;;5.47;2.92;;;;;;;15.18;65.05;99739.64;1774101;79;21636;-58
2021/05/15 03:46:40;;;;;;;6.50;3.25;;;;;;;15.25;64.97;99747.75;1773164;79;21817;-59
2021/05/15 03:49:08;;;;;;;5.87;3.00;;;;;;;15.30;64.82;99745.89;1774865;79;21016;-59
2021/05/15 03:51:35;;;;;;;8.53;2.47;;;;;;;15.32;64.71;99749.22;1771132;79;21040;-59
2021/05/15 03:54:02;;;;;;;5.40;2.72;;;;;;;15.34;64.67;99749.37;1766588;79;21087;-59
2021/05/15 03:58:19;;;;;;;5.70;2.50;;;;;;;15.44;64.33;99748.37;1872232;74;23567;-60
2021/05/15 04:00:45;;;;;;;5.58;2.62;;;;;;;15.38;64.27;99752.03;1813651;77;21080;-60
2021/05/15 04:03:12;;;;;;;5.97;2.58;;;;;;;15.46;64.32;99752.99;1848152;75;21099;-60
2021/05/15 04:05:38;;;;;;;6.00;2.85;;;;;;;15.61;64.17;99754.75;1783106;78;21051;-58
2021/05/15 04:08:05;;;;;;;4.85;2.10;;;;;;;15.76;63.69;99754.08;1780344;78;21700;-58
2021/05/15 04:10:32;;;;;;;4.75;2.10;;;;;;;15.87;63.75;99760.83;1805150;78;21571;-59
2021/05/15 04:13:05;;;;;;;5.50;2.33;;;;;;;15.95;63.36;99760.79;1806868;77;21079;-58
2021/05/15 04:15:42;;;;;;;5.33;2.60;;;;;;;16.00;62.96;99765.08;1779636;78;21357;-59
2021/05/15 04:18:10;;;;;;;4.97;2.50;;;;;;;16.02;62.97;99763.10;1800155;78;21728;-59
2021/05/15 04:20:38;;;;;;;4.85;2.35;;;;;;;16.05;62.62;99769.36;1790450;79;20997;-59
2021/05/15 04:23:06;;;;;;;5.17;2.55;;;;;;;16.03;62.57;99772.70;1806928;79;21032;-59
2021/05/15 04:25:33;;;;;;;5.00;2.55;;;;;;;16.02;62.56;99771.06;1802478;79;21155;-59
2021/05/15 04:28:00;;;;;;;7.05;2.47;;;;;;;16.01;62.54;99766.74;1799855;78;21087;-59
2021/05/15 04:30:27;;;;;;;4.87;2.37;;;;;;;16.02;62.69;99776.37;1774143;80;21170;-59
2021/05/15 04:32:53;;;;;;;5.15;2.47;;;;;;;16.08;62.67;99775.66;1750066;80;21112;-59
2021/05/15 04:35:21;;;;;;;5.12;2.30;;;;;;;16.19;62.67;99783.75;1773682;79;21112;-59
2021/05/15 04:37:49;;;;;;;5.10;2.52;;;;;;;16.27;62.62;99775.74;1789213;80;21092;-59
2021/05/15 04:40:17;;;;;;;4.47;2.10;;;;;;;16.31;62.44;99778.88;1772521;79;21575;-59
2021/05/15 04:42:44;;;;;;;11.73;2.95;;;;;;;16.34;62.41;99774.55;1751651;79;21140;-59
2021/05/15 04:45:13;;;;;;;6.00;2.30;;;;;;;16.38;62.25;99774.50;1777088;78;21147;-62
2021/05/15 04:47:41;;;;;;;5.78;2.05;;;;;;;16.42;62.01;99780.29;1773025;79;21123;-60
2021/05/15 04:50:10;;;;;;;4.47;2.25;;;;;;;16.44;62.00;99783.59;1797830;77;21020;-61
2021/05/15 04:52:37;;;;;;;5.33;2.92;;;;;;;16.47;61.93;99788.55;1783073;78;21159;-58
2021/05/15 04:55:05;;;;;;;4.25;2.27;;;;;;;16.47;61.80;99789.37;1808391;77;21200;-58
2021/05/15 04:57:31;;;;;;;5.47;3.02;;;;;;;16.47;61.83;99790.70;1806503;78;21178;-59
2021/05/15 04:59:58;;;;;;;4.60;2.30;;;;;;;16.55;61.96;99789.02;1778377;79;21091;-59
2021/05/15 05:02:27;;;;;;;5.87;3.05;;;;;;;16.67;61.83;99791.57;1779991;79;21771;-58
2021/05/15 05:04:53;;;;;;;6.53;2.62;;;;;;;16.76;61.94;99795.84;1797787;77;21061;-58
2021/05/15 05:07:19;;;;;;;6.35;2.33;;;;;;;16.82;61.63;99798.28;1776063;79;21138;-61
2021/05/15 05:09:48;;;;;;;5.10;2.27;;;;;;;16.87;61.22;99800.74;1773190;78;21339;-58
2021/05/15 05:12:14;;;;;;;4.00;1.72;;;;;;;16.92;61.04;99800.73;1744688;80;21654;-59
2021/05/15 05:14:43;;;;;;;5.20;2.05;;;;;;;16.96;60.89;99808.14;1780535;79;21134;-59
2021/05/15 05:17:09;;;;;;;4.37;1.80;;;;;;;16.98;60.83;99810.14;1754262;80;21132;-59
2021/05/15 05:19:36;;;;;;;5.22;2.20;;;;;;;17.01;60.62;99814.27;1777742;79;21108;-60
2021/05/15 05:22:03;;;;;;;6.58;2.05;;;;;;;17.03;60.38;99809.59;1783498;79;21484;-59
2021/05/15 05:24:31;;;;;;;4.30;1.67;;;;;;;17.07;60.38;99810.90;1779411;79;21740;-59
2021/05/15 05:26:58;;;;;;;5.10;1.82;;;;;;;17.11;60.25;99806.86;1775279;78;21095;-59
2021/05/15 05:29:25;;;;;;;4.08;1.60;;;;;;;17.21;60.16;99805.28;1774215;78;22232;-59
2021/05/15 05:31:52;;;;;;;4.00;1.80;;;;;;;17.38;59.99;99813.45;1778532;79;21113;-59
2021/05/15 05:34:19;;;;;;;4.70;2.02;;;;;;;17.53;59.86;99814.77;1778601;79;21417;-60
2021/05/15 05:36:46;;;;;;;4.10;1.62;;;;;;;17.61;59.09;99814.69;1759555;78;21115;-59
2021/05/15 05:39:18;;;;;;;4.75;1.75;;;;;;;17.70;58.85;99821.26;1801678;77;21599;-59
2021/05/15 05:41:46;;;;;;;4.17;1.65;;;;;;;17.75;58.49;99819.72;1796819;78;21076;-59
2021/05/15 05:44:12;;;;;;;4.75;1.45;;;;;;;17.76;58.49;99821.86;1732118;80;21190;-59
2021/05/15 05:46:38;;;;;;;3.05;1.45;;;;;;;17.76;58.60;99823.20;1758910;79;21095;-58
2021/05/15 05:49:05;;;;;;;4.53;1.65;;;;;;;17.79;58.05;99817.52;1746426;80;21096;-59
2021/05/15 05:51:32;;;;;;;3.95;1.60;;;;;;;17.80;58.16;99820.47;1783794;80;21075;-58
2021/05/15 05:53:58;;;;;;;3.80;1.70;;;;;;;17.81;57.97;99823.47;1811759;78;21132;-62
2021/05/15 05:56:25;;;;;;;4.58;1.62;;;;;;;17.82;58.07;99823.80;1782804;78;22242;-59
2021/05/15 05:58:51;;;;;;;4.70;1.95;;;;;;;17.83;58.06;99828.91;1784668;78;21128;-59
2021/05/15 06:01:18;;;;;;;4.55;1.80;;;;;;;17.84;58.31;99831.09;1753697;79;21553;-60
2021/05/15 06:03:45;;;;;;;3.72;1.40;;;;;;;17.89;58.53;99829.25;1778784;78;21105;-59
2021/05/15 06:06:14;;;;;;;4.20;1.30;;;;;;;17.94;58.30;99836.99;1791420;78;21577;-60
2021/05/15 06:08:40;;;;;;;3.92;1.65;;;;;;;17.96;58.24;99838.14;1780602;78;21099;-61
2021/05/15 06:11:07;;;;;;;4.40;1.87;;;;;;;17.95;58.28;99838.63;1779602;80;21101;-60
2021/05/15 06:13:34;;;;;;;3.47;1.40;;;;;;;18.06;58.20;99842.67;1810323;78;21089;-60
2021/05/15 06:16:03;;;;;;;4.72;1.90;;;;;;;18.22;57.75;99836.30;1781736;78;21085;-69
2021/05/15 06:18:30;;;;;;;4.12;1.70;;;;;;;18.35;57.91;99836.98;1800597;78;22783;-60
2021/05/15 06:20:57;;;;;;;5.45;1.80;;;;;;;18.42;56.83;99835.73;1766053;80;21500;-59
2021/05/15 06:23:23;;;;;;;5.30;1.90;;;;;;;18.47;56.92;99838.66;1812279;78;21123;-63
2021/05/15 06:25:51;;;;;;;4.75;1.90;;;;;;;18.51;56.73;99846.09;1769899;80;21728;-60
2021/05/15 06:28:19;;;;;;;3.70;1.65;;;;;;;18.55;56.96;99842.02;1786306;80;21073;-65
2021/05/15 06:30:45;;;;;;;4.62;1.77;;;;;;;18.60;57.01;99841.47;1776994;78;21117;-64
2021/05/15 06:33:13;;;;;;;5.08;1.75;;;;;;;18.64;56.56;99845.91;1776633;79;21668;-62
2021/05/15 06:35:39;;;;;;;3.87;1.67;;;;;;;18.66;56.59;99850.05;1776262;78;21142;-67
2021/05/15 06:38:06;;;;;;;6.45;1.90;;;;;;;18.67;56.37;99847.69;1778020;78;21549;-66
2021/05/15 06:40:34;;;;;;;4.30;1.77;;;;;;;18.68;56.59;99852.53;1773207;80;21903;-66
2021/05/15 06:43:01;;;;;;;4.95;1.77;;;;;;;18.67;56.68;99847.69;1778241;78;21035;-64
2021/05/15 06:45:27;;;;;;;5.08;2.25;;;;;;;18.66;56.86;99851.38;1786834;78;21152;-68
2021/05/15 06:47:56;;;;;;;4.97;1.92;;;;;;;18.66;57.07;99847.38;1771988;78;21680;-66
2021/05/15 06:50:23;;;;;;;4.90;2.02;;;;;;;18.71;57.03;99854.30;1735601;80;21195;-65
2021/05/15 06:52:49;;;;;;;4.85;2.12;;;;;;;18.77;57.15;99852.71;1767197;79;21076;-59
2021/05/15 06:55:16;;;;;;;5.20;2.15;;;;;;;18.86;56.87;99858.77;1757305;80;21143;-61
2021/05/15 06:57:44;;;;;;;4.37;1.95;;;;;;;18.96;56.48;99853.95;1776731;80;21156;-63
2021/05/15 07:00:13;;;;;;;5.28;1.80;;;;;;;19.04;56.37;99861.00;1784084;78;21067;-60
2021/05/15 07:02:39;;;;;;;3.98;1.70;;;;;;;19.09;56.39;99864.73;1779992;78;21100;-59
2021/05/15 07:05:06;;;;;;;4.17;1.60;;;;;;;19.14;55.90;99870.84;1767083;80;21696;-67
2021/05/15 07:07:33;;;;;;;4.37;1.87;;;;;;;19.18;55.80;99860.61;1783193;78;21138;-63
2021/05/15 07:10:00;;;;;;;3.90;1.82;;;;;;;19.22;55.76;99862.70;1806183;78;21072;-61
2021/05/15 07:12:26;;;;;;;4.50;1.60;;;;;;;19.25;55.26;99860.18;1793452;78;21118;-61
2021/05/15 07:14:53;;;;;;;4.28;1.40;;;;;;;19.29;55.31;99870.77;1802474;78;21120;-64
2021/05/15 07:17:26;;;;;;;3.83;1.75;;;;;;;19.31;54.65;99868.72;1809348;78;21114;-64
2021/05/15 07:19:56;;;;;;;4.17;1.90;;;;;;;19.33;55.04;99860.53;1782153;78;21066;-62
2021/05/15 07:22:24;;;;;;;4.42;1.62;;;;;;;19.40;55.27;99865.41;1804602;78;21747;-59
2021/05/15 07:24:52;;;;;;;3.50;1.52;;;;;;;19.50;55.33;99859.22;1758623;80;21043;-64
2021/05/15 07:27:19;;;;;;;6.00;2.08;;;;;;;19.58;54.00;99868.42;1809802;77;21147;-64
2021/05/15 07:29:45;;;;;;;3.98;1.50;;;;;;;19.62;54.31;99852.34;1771512;80;21665;-62
2021/05/15 07:32:12;;;;;;;3.98;1.45;;;;;;;19.70;54.19;99858.02;1786526;78;22511;-65
2021/05/15 07:34:38;;;;;;;5.37;1.42;;;;;;;19.78;53.58;99859.24;1807075;78;21087;-62
2021/05/15 07:37:05;;;;;;;5.78;1.65;;;;;;;19.85;52.83;99857.46;1783074;79;21207;-65
2021/05/15 07:39:31;;;;;;;3.17;1.35;;;;;;;19.91;52.38;99851.02;1809781;78;21441;-60
2021/05/15 07:41:59;;;;;;;2.95;1.10;;;;;;;19.94;52.15;99863.95;1810049;78;21016;-61
2021/05/15 07:44:25;;;;;;;4.50;1.52;;;;;;;19.95;51.91;99869.61;1787954;79;21178;-61
2021/05/15 07:46:51;;;;;;;4.67;1.95;;;;;;;19.93;51.75;99874.34;1814137;78;21179;-60
2021/05/15 07:49:18;;;;;;;6.72;1.55;;;;;;;19.91;51.78;99865.70;1782190;78;21081;-60
2021/05/15 07:51:45;;;;;;;4.53;1.40;;;;;;;19.86;52.07;99854.27;1773699;78;21076;-59
2021/05/15 07:54:13;;;;;;;5.30;1.85;;;;;;;19.89;52.59;99867.72;1803498;78;21119;-63
2021/05/15 07:56:39;;;;;;;3.45;1.22;;;;;;;19.94;52.15;99858.13;1808159;78;21068;-59
2021/05/15 07:59:05;;;;;;;2.90;1.15;;;;;;;20.03;51.84;99857.44;1805824;78;21092;-63
2021/05/15 08:01:32;;;;;;;3.33;1.20;;;;;;;20.12;50.70;99865.59;1801606;78;21095;-60
2021/05/15 08:03:58;;;;;;;3.87;1.15;;;;;;;20.17;50.45;99864.52;1749796;78;21089;-59
2021/05/15 08:06:25;;;;;;;5.12;1.72;;;;;;;20.20;50.66;99853.92;1776237;78;21316;-61
2021/05/15 08:08:52;;;;;;;2.67;1.07;;;;;;;20.27;50.67;99864.13;1797192;78;21079;-61
2021/05/15 08:11:18;;;;;;;2.50;1.10;;;;;;;20.35;49.43;99863.14;1779294;78;21454;-61
2021/05/15 08:13:47;;;;;;;3.47;1.07;;;;;;;20.38;48.78;99864.89;1777628;78;21072;-62
2021/05/15 08:16:14;;;;;;;4.92;1.42;;;;;;;20.41;49.02;99864.50;1770952;78;21088;-63
2021/05/15 08:18:43;;;;;;;3.22;1.47;;;;;;;20.45;48.95;99860.09;1769221;79;21095;-58
2021/05/15 08:21:10;;;;;;;3.02;1.02;;;;;;;20.54;49.39;99855.72;1798584;78;21084;-62
2021/05/15 08:23:39;;;;;;;16.42;3.37;;;;;;;20.68;48.80;99855.75;1772229;79;21131;-58
2021/05/15 08:26:12;;;;;;;2.80;1.00;;;;;;;20.80;48.48;99850.14;1793571;77;21139;-68
2021/05/15 08:28:49;;;;;;;2.75;1.05;;;;;;;20.93;47.80;99854.67;1797025;78;21641;-65
2021/05/15 08:31:14;;;;;;;3.52;1.02;;;;;;;21.00;47.36;99860.03;1777430;79;21144;-67
2021/05/15 08:33:41;;;;;;;2.50;1.00;;;;;;;21.08;47.81;99857.16;1767938;80;21640;-62
2021/05/15 08:36:08;;;;;;;3.12;1.17;;;;;;;21.17;47.79;99855.13;1786437;78;21132;-65
2021/05/15 08:38:34;;;;;;;2.25;0.70;;;;;;;21.27;47.23;99848.86;1803834;78;21016;-63
2021/05/15 08:41:01;;;;;;;3.92;0.82;;;;;;;21.37;46.77;99851.09;1774666;79;21140;-66
2021/05/15 08:43:28;;;;;;;3.37;1.20;;;;;;;21.42;46.12;99864.70;1776023;79;21088;-62
2021/05/15 08:45:57;;;;;;;4.20;1.30;;;;;;;21.41;45.33;99863.86;1744523;80;21697;-63
2021/05/15 08:48:24;;;;;;;3.60;0.85;;;;;;;21.42;45.79;99869.53;1797041;77;21163;-59
2021/05/15 08:50:51;;;;;;;5.47;1.32;;;;;;;21.46;45.62;99861.91;1786745;78;21120;-61
2021/05/15 08:53:17;;;;;;;2.85;0.75;;;;;;;21.52;46.32;99852.57;1801418;77;21143;-63
2021/05/15 08:55:44;;;;;;;9.88;1.67;;;;;;;21.71;46.12;99859.44;1776041;78;21037;-62
2021/05/15 08:58:10;;;;;;;4.47;0.82;;;;;;;21.87;45.10;99853.65;1800629;78;21058;-61
2021/05/15 09:00:39;;;;;;;14.00;3.83;;;;;;;21.94;44.54;99858.98;1773252;80;21663;-62
2021/05/15 09:03:09;;;;;;;5.70;1.55;;;;;;;21.98;44.62;99855.37;1781315;80;21151;-64
2021/05/15 09:05:38;;;;;;;3.40;0.90;;;;;;;21.99;44.32;99860.52;1774625;78;21647;-62
2021/05/15 09:08:08;;;;;;;3.92;1.10;;;;;;;21.99;44.32;99853.82;1780247;79;21096;-63
2021/05/15 09:10:35;;;;;;;3.90;0.95;;;;;;;22.05;43.81;99850.80;1802239;78;21490;-64
2021/05/15 09:13:17;;;;;;;5.72;0.98;;;;;;;22.07;43.42;99856.27;1804832;78;21064;-64
2021/05/15 09:15:49;;;;;;;2.52;0.88;;;;;;;22.07;43.20;99860.29;1801230;78;21072;-64
2021/05/15 09:18:22;;;;;;;4.50;1.10;;;;;;;22.05;41.87;99861.00;1781868;78;21052;-67
2021/05/15 09:20:54;;;;;;;3.73;1.33;;;;;;;21.98;41.03;99858.86;1798313;77;21075;-62
2021/05/15 09:23:29;;;;;;;6.62;0.90;;;;;;;21.92;41.56;99864.23;1772320;78;21151;-65
2021/05/15 09:26:17;;;;;;;1.98;0.82;;;;;;;21.91;42.09;99859.41;1778331;78;21183;-65
2021/05/15 09:28:54;;;;;;;3.30;0.93;;;;;;;21.96;41.22;99863.61;1791516;79;21636;-62
2021/05/15 09:31:37;;;;;;;5.58;1.00;;;;;;;21.96;41.28;99860.94;1758073;79;21654;-63
2021/05/15 09:34:05;;;;;;;8.08;1.57;;;;;;;21.99;41.53;99867.22;1778936;79;21631;-64
2021/05/15 09:36:39;;;;;;;7.80;1.92;;;;;;;22.04;40.90;99859.37;1758683;80;21401;-65
2021/05/15 09:39:11;;;;;;;17.12;2.70;;;;;;;22.16;41.27;99865.42;1776904;79;21585;-64
2021/05/15 09:41:54;;;;;;;4.15;0.70;;;;;;;22.30;41.11;99863.53;1767730;78;21616;-63
2021/05/15 09:44:28;;;;;;;2.87;1.10;;;;;;;22.44;41.18;99864.61;1809597;78;21664;-66
2021/05/15 09:46:55;;;;;;;3.60;1.00;;;;;;;22.53;42.31;99862.50;1746887;80;21122;-64
2021/05/15 09:49:26;;;;;;;4.25;0.93;;;;;;;22.60;42.75;99872.66;1776022;78;21071;-69
2021/05/15 09:52:00;;;;;;;3.08;0.90;;;;;;;22.63;43.09;99877.60;1778868;78;21139;-59
2021/05/15 09:54:35;;;;;;;3.27;1.27;;;;;;;22.60;42.95;99875.88;1786121;78;21173;-65
2021/05/15 09:57:08;;;;;;;3.05;1.12;;;;;;;22.56;42.88;99880.00;1806552;78;21169;-63
2021/05/15 10:02:20;;;;;;;2.98;1.22;;;;;;;22.44;42.98;99890.08;1867233;74;21580;-66
2021/05/15 10:04:49;;;;;;;2.70;1.15;;;;;;;22.35;42.83;99894.02;1828074;75;20944;-67
2021/05/15 10:07:21;;;;;;;3.17;1.17;;;;;;;22.19;42.94;99885.91;1816392;77;22555;-68
2021/05/15 10:09:48;;;;;;;3.50;1.15;;;;;;;22.07;43.75;99885.74;1812454;75;20917;-70
2021/05/15 10:12:15;;;;;;;5.08;1.10;;;;;;;22.02;43.32;99891.41;1843699;77;21175;-68
2021/05/15 10:14:42;;;;;;;3.12;1.07;;;;;;;21.97;43.21;99894.73;1810073;77;21064;-71
2021/05/15 10:17:10;;;;;;;5.10;1.15;;;;;;;21.91;42.59;99890.20;1843689;77;21585;-65
2021/05/15 10:19:37;;;;;;;3.70;1.27;;;;;;;21.81;43.43;99888.48;1844132;76;21013;-70
2021/05/15 10:22:03;;;;;;;5.40;1.22;;;;;;;21.75;43.11;99890.64;1826209;77;22136;-70
2021/05/15 10:24:34;;;;;;;2.80;1.10;;;;;;;21.71;43.47;99885.69;1809431;77;21049;-66
2021/05/15 10:27:07;;;;;;;3.15;1.15;;;;;;;21.68;43.67;99898.68;1777326;79;21066;-65
2021/05/15 10:29:42;;;;;;;4.20;1.20;;;;;;;21.64;43.83;99892.11;1782989;78;21063;-65
2021/05/15 10:32:21;;;;;;;;;;;;;;;21.60;43.88;99887.69;1778413;79;21231;-69
2021/05/15 10:34:51;;;;;;;6.22;1.17;;;;;;;21.60;44.40;99886.34;1791279;79;20201;-66
2021/05/15 10:37:19;;;;;;;3.47;1.67;;;;;;;21.60;44.43;99890.36;1739100;79;21588;-66
2021/05/15 10:39:47;;;;;;;4.87;1.37;;;;;;;21.65;44.30;99888.38;1752865;80;21557;-67
2021/05/15 10:42:14;;;;;;;3.15;1.37;;;;;;;21.68;44.19;99886.11;1781289;79;21022;-67
2021/05/15 10:44:42;;;;;;;3.80;1.50;;;;;;;21.73;44.51;99888.69;1746371;80;21040;-66
2021/05/15 10:47:10;;;;;;;2.67;1.20;;;;;;;21.79;44.24;99887.88;1779352;80;21124;-69
2021/05/15 10:49:39;;;;;;;2.80;1.22;;;;;;;21.80;43.68;99873.43;1780771;78;21124;-68
2021/05/15 10:52:10;;;;;;;3.50;1.62;;;;;;;21.81;44.02;99867.86;1748436;81;21602;-66
2021/05/15 10:54:39;;;;;;;3.22;1.05;;;;;;;21.87;44.07;99871.06;1760404;79;21050;-65
2021/05/15 10:57:09;;;;;;;3.27;1.30;;;;;;;21.96;44.00;99881.02;1760805;80;21087;-66
2021/05/15 10:59:37;;;;;;;2.60;1.07;;;;;;;21.99;43.52;99881.95;1780081;79;21076;-67
2021/05/15 11:02:13;;;;;;;3.25;1.37;;;;;;;22.01;43.46;99891.93;1754168;80;21067;-69
2021/05/15 11:04:52;;;;;;;3.12;1.30;;;;;;;21.96;43.38;99894.42;1753441;80;21143;-71
2021/05/15 11:07:23;;;;;;;3.27;1.07;;;;;;;21.91;43.77;99889.39;1785722;78;21068;-70
2021/05/15 11:09:53;;;;;;;3.95;1.27;;;;;;;21.91;43.50;99893.41;1729794;80;21112;-66
2021/05/15 11:12:20;;;;;;;5.10;1.30;;;;;;;21.93;43.57;99900.71;1775463;78;21067;-66
2021/05/15 11:14:50;;;;;;;4.25;1.30;;;;;;;21.95;43.74;99902.13;1763495;78;21068;-68
2021/05/15 11:17:25;;;;;;;2.80;0.82;;;;;;;22.00;43.40;99910.36;1772774;78;21077;-66
2021/05/15 11:20:00;;;;;;;3.40;1.50;;;;;;;22.04;43.06;99899.55;1793123;78;21096;-68
2021/05/15 11:22:42;;;;;;;4.00;1.80;;;;;;;22.06;44.86;99907.38;1781041;79;21096;-67
2021/05/15 11:25:27;;;;;;;3.90;1.55;;;;;;;22.03;45.45;99915.83;1787232;78;21092;-68
2021/05/15 11:27:56;;;;;;;5.05;1.85;;;;;;;21.93;47.30;99914.92;1783346;78;21049;-65
2021/05/15 11:30:36;;;;;;;3.60;1.85;;;;;;;21.82;47.39;99922.23;1791589;78;22294;-66
2021/05/15 11:33:07;;;;;;;4.62;2.25;;;;;;;21.79;48.02;99924.02;1759616;80;21107;-67
2021/05/15 11:35:41;;;;;;;5.83;2.15;;;;;;;21.72;46.66;99924.02;1784638;78;22185;-65
2021/05/15 11:38:21;;;;;;;5.67;2.00;;;;;;;21.60;46.88;99921.15;1752313;80;21052;-65
2021/05/15 11:40:51;;;;;;;5.08;1.85;;;;;;;21.46;46.93;99923.47;1784688;79;21597;-66
2021/05/15 11:43:32;;;;;;;4.28;2.05;;;;;;;21.31;47.33;99920.47;1792200;78;21096;-66
2021/05/15 11:46:01;;;;;;;4.78;1.50;;;;;;;21.22;47.38;99924.37;1787316;78;21519;-65